sensor_id;sensor_type;location;lat;lon;timestamp;P1;durP1;ratioP1;P2;durP2;ratioP2
30458;SDS011;17254;50.976;7.034;2022-10-03T00:00:40;34.03;;;11.70;;
30458;SDS011;17254;50.976;7.034;2022-10-03T00:01:38;45.85;;;13.00;;
30458;SDS011;17254;50.976;7.034;2022-10-03T00:02:27;36.60;;;13.75;;
30458;SDS011;17254;50.976;7.034;2022-10-03T00:03:13;52.42;;;13.35;;
30458;SDS011;17254;50.976;7.034;2022-10-03T00:03:55;44.47;;;12.63;;
30458;SDS011;17254;50.976;7.034;2022-10-03T00:04:47;45.45;;;11.77;;
30458;SDS011;17254;50.976;7.034;2022-10-03T00:05:33;33.05;;;12.60;;
30458;SDS011;17254;50.976;7.034;2022-10-03T00:06:14;38.20;;;11.43;;
30458;SDS011;17254;50.976;7.034;2022-10-03T00:07:01;37.72;;;12.05;;
30458;SDS011;17254;50.976;7.034;2022-10-03T00:07:45;34.33;;;10.88;;
30458;SDS011;17254;50.976;7.034;2022-10-03T00:08:35;44.72;;;12.40;;
30458;SDS011;17254;50.976;7.034;2022-10-03T00:09:27;53.10;;;14.40;;
30458;SDS011;17254;50.976;7.034;2022-10-03T00:10:15;34.08;;;13.15;;
30458;SDS011;17254;50.976;7.034;2022-10-03T00:10:55;36.85;;;13.52;;
30458;SDS011;17254;50.976;7.034;2022-10-03T00:11:36;43.42;;;12.98;;
30458;SDS011;17254;50.976;7.034;2022-10-03T00:12:34;52.28;;;13.45;;
30458;SDS011;17254;50.976;7.034;2022-10-03T00:13:15;45.70;;;14.55;;
30458;SDS011;17254;50.976;7.034;2022-10-03T00:13:53;43.38;;;12.52;;
30458;SDS011;17254;50.976;7.034;2022-10-03T00:14:33;44.25;;;14.48;;
30458;SDS011;17254;50.976;7.034;2022-10-03T00:15:13;36.55;;;13.25;;
30458;SDS011;17254;50.976;7.034;2022-10-03T00:15:49;40.42;;;13.73;;
30458;SDS011;17254;50.976;7.034;2022-10-03T00:16:34;51.92;;;14.60;;
30458;SDS011;17254;50.976;7.034;2022-10-03T00:17:14;48.38;;;15.52;;
30458;SDS011;17254;50.976;7.034;2022-10-03T00:17:53;34.40;;;13.27;;
30458;SDS011;17254;50.976;7.034;2022-10-03T00:18:35;49.17;;;14.13;;
30458;SDS011;17254;50.976;7.034;2022-10-03T00:19:19;44.50;;;13.73;;
30458;SDS011;17254;50.976;7.034;2022-10-03T00:20:01;29.75;;;12.60;;
30458;SDS011;17254;50.976;7.034;2022-10-03T00:20:59;43.72;;;13.60;;
30458;SDS011;17254;50.976;7.034;2022-10-03T00:21:43;39.97;;;13.23;;
30458;SDS011;17254;50.976;7.034;2022-10-03T00:22:24;41.00;;;15.80;;
30458;SDS011;17254;50.976;7.034;2022-10-03T00:23:05;41.95;;;13.70;;
30458;SDS011;17254;50.976;7.034;2022-10-03T00:23:42;42.28;;;14.43;;
30458;SDS011;17254;50.976;7.034;2022-10-03T00:24:21;47.70;;;14.60;;
30458;SDS011;17254;50.976;7.034;2022-10-03T00:25:02;58.28;;;14.82;;
30458;SDS011;17254;50.976;7.034;2022-10-03T00:25:51;43.90;;;15.50;;
30458;SDS011;17254;50.976;7.034;2022-10-03T00:26:27;38.00;;;14.63;;
30458;SDS011;17254;50.976;7.034;2022-10-03T00:27:11;43.83;;;14.50;;
30458;SDS011;17254;50.976;7.034;2022-10-03T00:27:48;42.63;;;15.80;;
30458;SDS011;17254;50.976;7.034;2022-10-03T00:28:42;49.72;;;16.75;;
30458;SDS011;17254;50.976;7.034;2022-10-03T00:30:22;45.88;;;16.05;;
30458;SDS011;17254;50.976;7.034;2022-10-03T00:31:01;58.08;;;17.33;;
30458;SDS011;17254;50.976;7.034;2022-10-03T00:31:41;48.65;;;15.82;;
30458;SDS011;17254;50.976;7.034;2022-10-03T00:32:27;41.55;;;16.27;;
30458;SDS011;17254;50.976;7.034;2022-10-03T00:33:08;45.30;;;17.00;;
30458;SDS011;17254;50.976;7.034;2022-10-03T00:33:54;69.63;;;15.43;;
30458;SDS011;17254;50.976;7.034;2022-10-03T00:34:38;51.78;;;15.70;;
30458;SDS011;17254;50.976;7.034;2022-10-03T00:35:28;37.92;;;16.20;;
30458;SDS011;17254;50.976;7.034;2022-10-03T00:36:11;39.92;;;15.82;;
30458;SDS011;17254;50.976;7.034;2022-10-03T00:36:51;46.85;;;16.02;;
30458;SDS011;17254;50.976;7.034;2022-10-03T00:37:36;47.90;;;15.32;;
30458;SDS011;17254;50.976;7.034;2022-10-03T00:38:18;37.35;;;15.52;;
30458;SDS011;17254;50.976;7.034;2022-10-03T00:39:05;39.13;;;14.93;;
30458;SDS011;17254;50.976;7.034;2022-10-03T00:42:18;43.28;;;15.30;;
30458;SDS011;17254;50.976;7.034;2022-10-03T00:43:12;51.97;;;16.25;;
30458;SDS011;17254;50.976;7.034;2022-10-03T00:45:38;42.63;;;15.23;;
30458;SDS011;17254;50.976;7.034;2022-10-03T00:47:49;48.40;;;16.42;;
30458;SDS011;17254;50.976;7.034;2022-10-03T00:49:57;41.47;;;16.45;;
30458;SDS011;17254;50.976;7.034;2022-10-03T00:51:38;43.78;;;16.98;;
30458;SDS011;17254;50.976;7.034;2022-10-03T00:52:21;34.58;;;15.50;;
30458;SDS011;17254;50.976;7.034;2022-10-03T00:54:21;56.65;;;19.15;;
30458;SDS011;17254;50.976;7.034;2022-10-03T00:55:07;47.10;;;17.10;;
30458;SDS011;17254;50.976;7.034;2022-10-03T00:55:50;39.85;;;16.83;;
30458;SDS011;17254;50.976;7.034;2022-10-03T00:56:40;49.35;;;19.05;;
30458;SDS011;17254;50.976;7.034;2022-10-03T00:57:31;61.00;;;19.90;;
30458;SDS011;17254;50.976;7.034;2022-10-03T00:58:29;59.90;;;18.65;;
30458;SDS011;17254;50.976;7.034;2022-10-03T00:59:13;47.90;;;19.80;;
30458;SDS011;17254;50.976;7.034;2022-10-03T01:00:03;47.58;;;18.48;;
30458;SDS011;17254;50.976;7.034;2022-10-03T01:00:45;56.22;;;19.85;;
30458;SDS011;17254;50.976;7.034;2022-10-03T01:01:22;44.15;;;18.77;;
30458;SDS011;17254;50.976;7.034;2022-10-03T01:02:18;64.80;;;18.58;;
30458;SDS011;17254;50.976;7.034;2022-10-03T01:03:04;53.85;;;18.83;;
30458;SDS011;17254;50.976;7.034;2022-10-03T01:03:51;47.05;;;19.35;;
30458;SDS011;17254;50.976;7.034;2022-10-03T01:05:23;51.67;;;19.58;;
30458;SDS011;17254;50.976;7.034;2022-10-03T01:06:05;52.20;;;19.63;;
30458;SDS011;17254;50.976;7.034;2022-10-03T01:06:48;42.58;;;17.95;;
30458;SDS011;17254;50.976;7.034;2022-10-03T01:07:44;52.20;;;18.98;;
30458;SDS011;17254;50.976;7.034;2022-10-03T01:08:41;58.80;;;20.27;;
30458;SDS011;17254;50.976;7.034;2022-10-03T01:09:28;57.85;;;20.20;;
30458;SDS011;17254;50.976;7.034;2022-10-03T01:10:12;43.88;;;19.70;;
30458;SDS011;17254;50.976;7.034;2022-10-03T01:10:51;57.08;;;19.42;;
30458;SDS011;17254;50.976;7.034;2022-10-03T01:11:36;46.67;;;18.45;;
30458;SDS011;17254;50.976;7.034;2022-10-03T01:12:25;49.72;;;18.30;;
30458;SDS011;17254;50.976;7.034;2022-10-03T01:13:12;43.50;;;18.30;;
30458;SDS011;17254;50.976;7.034;2022-10-03T01:13:55;52.85;;;18.35;;
30458;SDS011;17254;50.976;7.034;2022-10-03T01:14:44;55.67;;;17.58;;
30458;SDS011;17254;50.976;7.034;2022-10-03T01:15:27;39.72;;;18.15;;
30458;SDS011;17254;50.976;7.034;2022-10-03T01:16:13;49.92;;;18.60;;
30458;SDS011;17254;50.976;7.034;2022-10-03T01:16:55;57.55;;;19.75;;
30458;SDS011;17254;50.976;7.034;2022-10-03T01:17:37;47.78;;;19.30;;
30458;SDS011;17254;50.976;7.034;2022-10-03T01:18:21;61.38;;;19.17;;
30458;SDS011;17254;50.976;7.034;2022-10-03T01:18:59;45.80;;;17.73;;
30458;SDS011;17254;50.976;7.034;2022-10-03T01:19:54;44.33;;;18.85;;
30458;SDS011;17254;50.976;7.034;2022-10-03T01:20:39;45.55;;;16.50;;
30458;SDS011;17254;50.976;7.034;2022-10-03T01:21:24;50.97;;;17.65;;
30458;SDS011;17254;50.976;7.034;2022-10-03T01:22:09;41.72;;;18.50;;
30458;SDS011;17254;50.976;7.034;2022-10-03T01:23:01;60.10;;;19.63;;
30458;SDS011;17254;50.976;7.034;2022-10-03T01:24:05;57.78;;;18.90;;
30458;SDS011;17254;50.976;7.034;2022-10-03T01:25:02;53.10;;;18.88;;
30458;SDS011;17254;50.976;7.034;2022-10-03T01:25:45;46.45;;;18.40;;
30458;SDS011;17254;50.976;7.034;2022-10-03T01:26:24;48.17;;;18.38;;
30458;SDS011;17254;50.976;7.034;2022-10-03T01:27:12;46.15;;;17.92;;
30458;SDS011;17254;50.976;7.034;2022-10-03T01:27:49;69.30;;;21.58;;
30458;SDS011;17254;50.976;7.034;2022-10-03T01:28:50;60.35;;;19.92;;
30458;SDS011;17254;50.976;7.034;2022-10-03T01:29:45;52.97;;;20.38;;
30458;SDS011;17254;50.976;7.034;2022-10-03T01:30:39;50.60;;;19.60;;
30458;SDS011;17254;50.976;7.034;2022-10-03T01:31:13;54.78;;;19.02;;
30458;SDS011;17254;50.976;7.034;2022-10-03T01:31:50;38.72;;;17.27;;
30458;SDS011;17254;50.976;7.034;2022-10-03T01:32:32;49.95;;;19.73;;
30458;SDS011;17254;50.976;7.034;2022-10-03T01:33:13;55.80;;;20.88;;
30458;SDS011;17254;50.976;7.034;2022-10-03T01:33:54;50.05;;;20.60;;
30458;SDS011;17254;50.976;7.034;2022-10-03T01:34:34;51.33;;;19.73;;
30458;SDS011;17254;50.976;7.034;2022-10-03T01:35:15;48.83;;;21.20;;
30458;SDS011;17254;50.976;7.034;2022-10-03T01:35:53;64.75;;;20.30;;
30458;SDS011;17254;50.976;7.034;2022-10-03T01:36:30;40.38;;;20.20;;
30458;SDS011;17254;50.976;7.034;2022-10-03T01:37:08;50.95;;;20.23;;
30458;SDS011;17254;50.976;7.034;2022-10-03T01:37:50;53.10;;;20.83;;
30458;SDS011;17254;50.976;7.034;2022-10-03T01:38:28;50.47;;;20.30;;
30458;SDS011;17254;50.976;7.034;2022-10-03T01:39:06;48.80;;;19.60;;
30458;SDS011;17254;50.976;7.034;2022-10-03T01:39:44;50.53;;;20.65;;
30458;SDS011;17254;50.976;7.034;2022-10-03T01:40:22;58.92;;;23.13;;
30458;SDS011;17254;50.976;7.034;2022-10-03T01:40:58;51.67;;;22.23;;
30458;SDS011;17254;50.976;7.034;2022-10-03T01:41:34;49.42;;;20.45;;
30458;SDS011;17254;50.976;7.034;2022-10-03T01:42:14;65.00;;;20.70;;
30458;SDS011;17254;50.976;7.034;2022-10-03T01:42:53;62.08;;;21.17;;
30458;SDS011;17254;50.976;7.034;2022-10-03T01:43:37;42.25;;;17.77;;
30458;SDS011;17254;50.976;7.034;2022-10-03T01:44:17;59.10;;;21.15;;
30458;SDS011;17254;50.976;7.034;2022-10-03T01:44:59;69.13;;;22.27;;
30458;SDS011;17254;50.976;7.034;2022-10-03T01:45:43;50.80;;;20.38;;
30458;SDS011;17254;50.976;7.034;2022-10-03T01:46:23;51.20;;;19.95;;
30458;SDS011;17254;50.976;7.034;2022-10-03T01:47:05;51.38;;;21.08;;
30458;SDS011;17254;50.976;7.034;2022-10-03T01:47:47;54.65;;;20.27;;
30458;SDS011;17254;50.976;7.034;2022-10-03T01:48:27;52.25;;;22.05;;
30458;SDS011;17254;50.976;7.034;2022-10-03T01:49:07;45.97;;;19.02;;
30458;SDS011;17254;50.976;7.034;2022-10-03T01:49:47;42.50;;;19.75;;
30458;SDS011;17254;50.976;7.034;2022-10-03T01:50:25;57.92;;;21.55;;
30458;SDS011;17254;50.976;7.034;2022-10-03T01:51:02;54.83;;;21.30;;
30458;SDS011;17254;50.976;7.034;2022-10-03T01:51:41;41.95;;;20.05;;
30458;SDS011;17254;50.976;7.034;2022-10-03T01:52:23;39.35;;;18.02;;
30458;SDS011;17254;50.976;7.034;2022-10-03T01:53:03;41.47;;;19.08;;
30458;SDS011;17254;50.976;7.034;2022-10-03T01:53:54;48.27;;;21.80;;
30458;SDS011;17254;50.976;7.034;2022-10-03T01:54:39;43.00;;;18.33;;
30458;SDS011;17254;50.976;7.034;2022-10-03T01:55:18;50.83;;;19.92;;
30458;SDS011;17254;50.976;7.034;2022-10-03T01:56:01;42.78;;;20.15;;
30458;SDS011;17254;50.976;7.034;2022-10-03T01:56:41;78.93;;;22.00;;
30458;SDS011;17254;50.976;7.034;2022-10-03T01:57:24;35.28;;;17.60;;
30458;SDS011;17254;50.976;7.034;2022-10-03T01:58:04;65.50;;;18.90;;
30458;SDS011;17254;50.976;7.034;2022-10-03T01:58:43;43.58;;;19.70;;
30458;SDS011;17254;50.976;7.034;2022-10-03T01:59:21;52.50;;;22.40;;
30458;SDS011;17254;50.976;7.034;2022-10-03T02:00:03;49.17;;;20.98;;
30458;SDS011;17254;50.976;7.034;2022-10-03T02:00:43;49.17;;;18.73;;
30458;SDS011;17254;50.976;7.034;2022-10-03T02:01:20;47.90;;;19.77;;
30458;SDS011;17254;50.976;7.034;2022-10-03T02:02:00;50.08;;;21.63;;
30458;SDS011;17254;50.976;7.034;2022-10-03T02:02:39;61.60;;;22.15;;
30458;SDS011;17254;50.976;7.034;2022-10-03T02:03:16;52.88;;;20.65;;
30458;SDS011;17254;50.976;7.034;2022-10-03T02:03:53;54.47;;;20.67;;
30458;SDS011;17254;50.976;7.034;2022-10-03T02:04:35;60.65;;;19.77;;
30458;SDS011;17254;50.976;7.034;2022-10-03T02:05:14;56.13;;;21.67;;
30458;SDS011;17254;50.976;7.034;2022-10-03T02:05:53;57.63;;;22.70;;
30458;SDS011;17254;50.976;7.034;2022-10-03T02:06:33;54.47;;;21.40;;
30458;SDS011;17254;50.976;7.034;2022-10-03T02:07:14;59.58;;;20.35;;
30458;SDS011;17254;50.976;7.034;2022-10-03T02:07:54;50.20;;;21.02;;
30458;SDS011;17254;50.976;7.034;2022-10-03T02:08:34;62.60;;;20.15;;
30458;SDS011;17254;50.976;7.034;2022-10-03T02:09:18;47.65;;;19.73;;
30458;SDS011;17254;50.976;7.034;2022-10-03T02:10:02;47.05;;;19.08;;
30458;SDS011;17254;50.976;7.034;2022-10-03T02:10:39;41.80;;;18.98;;
30458;SDS011;17254;50.976;7.034;2022-10-03T02:11:21;49.05;;;20.10;;
30458;SDS011;17254;50.976;7.034;2022-10-03T02:12:02;54.22;;;21.52;;
30458;SDS011;17254;50.976;7.034;2022-10-03T02:12:39;51.22;;;19.95;;
30458;SDS011;17254;50.976;7.034;2022-10-03T02:13:19;48.50;;;18.90;;
30458;SDS011;17254;50.976;7.034;2022-10-03T02:13:56;58.75;;;21.38;;
30458;SDS011;17254;50.976;7.034;2022-10-03T02:14:39;51.53;;;21.88;;
30458;SDS011;17254;50.976;7.034;2022-10-03T02:15:17;46.80;;;20.77;;
30458;SDS011;17254;50.976;7.034;2022-10-03T02:15:56;57.05;;;22.40;;
30458;SDS011;17254;50.976;7.034;2022-10-03T02:16:36;46.10;;;18.23;;
30458;SDS011;17254;50.976;7.034;2022-10-03T02:17:19;49.75;;;19.35;;
30458;SDS011;17254;50.976;7.034;2022-10-03T02:17:55;43.83;;;19.80;;
30458;SDS011;17254;50.976;7.034;2022-10-03T02:18:35;52.30;;;21.58;;
30458;SDS011;17254;50.976;7.034;2022-10-03T02:19:17;61.25;;;21.95;;
30458;SDS011;17254;50.976;7.034;2022-10-03T02:19:54;66.25;;;23.52;;
30458;SDS011;17254;50.976;7.034;2022-10-03T02:20:33;48.10;;;21.02;;
30458;SDS011;17254;50.976;7.034;2022-10-03T02:21:13;65.88;;;22.52;;
30458;SDS011;17254;50.976;7.034;2022-10-03T02:21:48;61.65;;;22.70;;
30458;SDS011;17254;50.976;7.034;2022-10-03T02:22:27;48.63;;;20.60;;
30458;SDS011;17254;50.976;7.034;2022-10-03T02:23:01;48.78;;;20.48;;
30458;SDS011;17254;50.976;7.034;2022-10-03T02:24:03;53.85;;;22.60;;
30458;SDS011;17254;50.976;7.034;2022-10-03T02:24:48;55.17;;;21.02;;
30458;SDS011;17254;50.976;7.034;2022-10-03T02:25:26;70.25;;;23.88;;
30458;SDS011;17254;50.976;7.034;2022-10-03T02:26:24;67.07;;;21.98;;
30458;SDS011;17254;50.976;7.034;2022-10-03T02:28:33;47.40;;;18.08;;
30458;SDS011;17254;50.976;7.034;2022-10-03T02:30:28;67.50;;;20.83;;
30458;SDS011;17254;50.976;7.034;2022-10-03T02:31:16;58.33;;;21.45;;
30458;SDS011;17254;50.976;7.034;2022-10-03T02:32:14;62.88;;;22.23;;
30458;SDS011;17254;50.976;7.034;2022-10-03T02:34:23;63.95;;;22.45;;
30458;SDS011;17254;50.976;7.034;2022-10-03T02:36:10;44.15;;;20.38;;
30458;SDS011;17254;50.976;7.034;2022-10-03T02:37:26;55.75;;;22.02;;
30458;SDS011;17254;50.976;7.034;2022-10-03T02:38:24;58.30;;;22.33;;
30458;SDS011;17254;50.976;7.034;2022-10-03T02:39:26;78.47;;;24.92;;
30458;SDS011;17254;50.976;7.034;2022-10-03T02:44:04;60.88;;;22.70;;
30458;SDS011;17254;50.976;7.034;2022-10-03T02:45:13;44.92;;;20.52;;
30458;SDS011;17254;50.976;7.034;2022-10-03T02:46:21;56.25;;;22.50;;
30458;SDS011;17254;50.976;7.034;2022-10-03T02:47:21;51.25;;;22.33;;
30458;SDS011;17254;50.976;7.034;2022-10-03T02:48:22;53.05;;;22.58;;
30458;SDS011;17254;50.976;7.034;2022-10-03T02:50:38;63.45;;;25.92;;
30458;SDS011;17254;50.976;7.034;2022-10-03T02:51:42;65.95;;;26.20;;
30458;SDS011;17254;50.976;7.034;2022-10-03T02:53:41;77.88;;;25.90;;
30458;SDS011;17254;50.976;7.034;2022-10-03T02:54:47;64.85;;;24.45;;
30458;SDS011;17254;50.976;7.034;2022-10-03T02:55:51;59.55;;;22.00;;
30458;SDS011;17254;50.976;7.034;2022-10-03T02:57:03;70.60;;;24.17;;
30458;SDS011;17254;50.976;7.034;2022-10-03T02:58:09;64.70;;;23.63;;
30458;SDS011;17254;50.976;7.034;2022-10-03T02:59:06;84.88;;;28.92;;
30458;SDS011;17254;50.976;7.034;2022-10-03T03:00:03;55.03;;;21.27;;
30458;SDS011;17254;50.976;7.034;2022-10-03T03:00:44;65.07;;;24.77;;
30458;SDS011;17254;50.976;7.034;2022-10-03T03:01:53;58.60;;;23.58;;
30458;SDS011;17254;50.976;7.034;2022-10-03T03:02:54;64.90;;;25.30;;
30458;SDS011;17254;50.976;7.034;2022-10-03T03:03:51;60.17;;;23.85;;
30458;SDS011;17254;50.976;7.034;2022-10-03T03:04:40;43.38;;;20.52;;
30458;SDS011;17254;50.976;7.034;2022-10-03T03:06:51;52.85;;;24.17;;
30458;SDS011;17254;50.976;7.034;2022-10-03T03:07:38;56.83;;;24.58;;
30458;SDS011;17254;50.976;7.034;2022-10-03T03:10:43;68.22;;;25.42;;
30458;SDS011;17254;50.976;7.034;2022-10-03T03:11:42;50.35;;;23.17;;
30458;SDS011;17254;50.976;7.034;2022-10-03T03:13:32;67.35;;;25.55;;
30458;SDS011;17254;50.976;7.034;2022-10-03T03:14:37;57.97;;;24.42;;
30458;SDS011;17254;50.976;7.034;2022-10-03T03:15:57;53.50;;;23.85;;
30458;SDS011;17254;50.976;7.034;2022-10-03T03:17:07;66.93;;;23.60;;
30458;SDS011;17254;50.976;7.034;2022-10-03T03:17:45;67.00;;;25.50;;
30458;SDS011;17254;50.976;7.034;2022-10-03T03:18:27;56.35;;;26.13;;
30458;SDS011;17254;50.976;7.034;2022-10-03T03:19:10;56.70;;;25.80;;
30458;SDS011;17254;50.976;7.034;2022-10-03T03:19:59;67.72;;;25.15;;
30458;SDS011;17254;50.976;7.034;2022-10-03T03:20:42;67.03;;;26.52;;
30458;SDS011;17254;50.976;7.034;2022-10-03T03:21:25;65.57;;;23.98;;
30458;SDS011;17254;50.976;7.034;2022-10-03T03:22:06;60.83;;;24.08;;
30458;SDS011;17254;50.976;7.034;2022-10-03T03:22:53;50.70;;;23.38;;
30458;SDS011;17254;50.976;7.034;2022-10-03T03:23:42;66.57;;;26.38;;
30458;SDS011;17254;50.976;7.034;2022-10-03T03:24:35;70.45;;;26.55;;
30458;SDS011;17254;50.976;7.034;2022-10-03T03:25:28;61.30;;;27.00;;
30458;SDS011;17254;50.976;7.034;2022-10-03T03:26:20;62.63;;;26.83;;
30458;SDS011;17254;50.976;7.034;2022-10-03T03:28:13;54.97;;;27.23;;
30458;SDS011;17254;50.976;7.034;2022-10-03T03:28:57;68.43;;;25.63;;
30458;SDS011;17254;50.976;7.034;2022-10-03T03:29:37;59.80;;;27.60;;
30458;SDS011;17254;50.976;7.034;2022-10-03T03:30:15;58.92;;;26.13;;
30458;SDS011;17254;50.976;7.034;2022-10-03T03:30:51;47.30;;;26.35;;
30458;SDS011;17254;50.976;7.034;2022-10-03T03:31:33;52.90;;;24.67;;
30458;SDS011;17254;50.976;7.034;2022-10-03T03:32:15;59.35;;;22.50;;
30458;SDS011;17254;50.976;7.034;2022-10-03T03:33:00;58.10;;;24.63;;
30458;SDS011;17254;50.976;7.034;2022-10-03T03:33:53;64.63;;;25.70;;
30458;SDS011;17254;50.976;7.034;2022-10-03T03:34:33;58.08;;;26.20;;
30458;SDS011;17254;50.976;7.034;2022-10-03T03:35:13;68.20;;;25.05;;
30458;SDS011;17254;50.976;7.034;2022-10-03T03:35:57;49.25;;;23.95;;
30458;SDS011;17254;50.976;7.034;2022-10-03T03:36:35;59.42;;;25.40;;
30458;SDS011;17254;50.976;7.034;2022-10-03T03:37:17;65.07;;;25.67;;
30458;SDS011;17254;50.976;7.034;2022-10-03T03:37:55;64.80;;;25.30;;
30458;SDS011;17254;50.976;7.034;2022-10-03T03:38:36;57.72;;;25.05;;
30458;SDS011;17254;50.976;7.034;2022-10-03T03:39:21;58.20;;;25.15;;
30458;SDS011;17254;50.976;7.034;2022-10-03T03:40:06;49.20;;;23.75;;
30458;SDS011;17254;50.976;7.034;2022-10-03T03:40:50;57.60;;;23.90;;
30458;SDS011;17254;50.976;7.034;2022-10-03T03:41:45;57.40;;;25.85;;
30458;SDS011;17254;50.976;7.034;2022-10-03T03:42:40;62.67;;;24.60;;
30458;SDS011;17254;50.976;7.034;2022-10-03T03:43:31;59.17;;;24.25;;
30458;SDS011;17254;50.976;7.034;2022-10-03T03:44:29;62.10;;;25.63;;
30458;SDS011;17254;50.976;7.034;2022-10-03T03:45:20;61.30;;;22.95;;
30458;SDS011;17254;50.976;7.034;2022-10-03T03:46:05;59.15;;;24.35;;
30458;SDS011;17254;50.976;7.034;2022-10-03T03:46:53;71.10;;;26.95;;
30458;SDS011;17254;50.976;7.034;2022-10-03T03:47:49;55.95;;;23.00;;
30458;SDS011;17254;50.976;7.034;2022-10-03T03:49:36;57.47;;;24.70;;
30458;SDS011;17254;50.976;7.034;2022-10-03T03:50:29;62.60;;;25.45;;
30458;SDS011;17254;50.976;7.034;2022-10-03T03:51:15;70.55;;;23.65;;
30458;SDS011;17254;50.976;7.034;2022-10-03T03:52:08;56.33;;;23.48;;
30458;SDS011;17254;50.976;7.034;2022-10-03T03:52:56;52.22;;;21.67;;
30458;SDS011;17254;50.976;7.034;2022-10-03T03:53:53;71.68;;;24.85;;
30458;SDS011;17254;50.976;7.034;2022-10-03T03:54:47;49.63;;;21.50;;
30458;SDS011;17254;50.976;7.034;2022-10-03T03:55:37;59.75;;;22.50;;
30458;SDS011;17254;50.976;7.034;2022-10-03T03:56:28;54.85;;;22.52;;
30458;SDS011;17254;50.976;7.034;2022-10-03T03:57:17;64.07;;;23.45;;
30458;SDS011;17254;50.976;7.034;2022-10-03T03:58:02;62.25;;;21.92;;
30458;SDS011;17254;50.976;7.034;2022-10-03T03:58:43;61.40;;;25.48;;
30458;SDS011;17254;50.976;7.034;2022-10-03T03:59:24;44.10;;;20.88;;
30458;SDS011;17254;50.976;7.034;2022-10-03T04:00:11;51.53;;;20.80;;
30458;SDS011;17254;50.976;7.034;2022-10-03T04:00:47;51.58;;;21.17;;
30458;SDS011;17254;50.976;7.034;2022-10-03T04:01:35;62.08;;;26.20;;
30458;SDS011;17254;50.976;7.034;2022-10-03T04:02:19;60.15;;;23.48;;
30458;SDS011;17254;50.976;7.034;2022-10-03T04:03:10;68.95;;;27.45;;
30458;SDS011;17254;50.976;7.034;2022-10-03T04:04:01;70.70;;;28.35;;
30458;SDS011;17254;50.976;7.034;2022-10-03T04:04:50;57.63;;;21.42;;
30458;SDS011;17254;50.976;7.034;2022-10-03T04:05:36;65.93;;;23.25;;
30458;SDS011;17254;50.976;7.034;2022-10-03T04:06:23;61.10;;;23.67;;
30458;SDS011;17254;50.976;7.034;2022-10-03T04:07:06;47.05;;;22.42;;
30458;SDS011;17254;50.976;7.034;2022-10-03T04:07:51;84.90;;;23.95;;
30458;SDS011;17254;50.976;7.034;2022-10-03T04:08:46;56.17;;;22.08;;
30458;SDS011;17254;50.976;7.034;2022-10-03T04:10:25;60.35;;;23.10;;
30458;SDS011;17254;50.976;7.034;2022-10-03T04:11:05;65.22;;;23.55;;
30458;SDS011;17254;50.976;7.034;2022-10-03T04:11:53;55.60;;;24.95;;
30458;SDS011;17254;50.976;7.034;2022-10-03T04:12:32;57.70;;;25.13;;
30458;SDS011;17254;50.976;7.034;2022-10-03T04:13:21;65.80;;;25.80;;
30458;SDS011;17254;50.976;7.034;2022-10-03T04:14:13;63.58;;;26.00;;
30458;SDS011;17254;50.976;7.034;2022-10-03T04:15:07;55.05;;;24.13;;
30458;SDS011;17254;50.976;7.034;2022-10-03T04:15:55;59.15;;;26.30;;
30458;SDS011;17254;50.976;7.034;2022-10-03T04:16:44;61.60;;;24.58;;
30458;SDS011;17254;50.976;7.034;2022-10-03T04:17:50;61.40;;;24.63;;
30458;SDS011;17254;50.976;7.034;2022-10-03T04:18:53;62.10;;;23.52;;
30458;SDS011;17254;50.976;7.034;2022-10-03T04:19:31;59.00;;;24.73;;
30458;SDS011;17254;50.976;7.034;2022-10-03T04:20:13;58.95;;;25.98;;
30458;SDS011;17254;50.976;7.034;2022-10-03T04:20:57;63.13;;;25.38;;
30458;SDS011;17254;50.976;7.034;2022-10-03T04:21:39;76.63;;;28.45;;
30458;SDS011;17254;50.976;7.034;2022-10-03T04:22:26;60.33;;;24.98;;
30458;SDS011;17254;50.976;7.034;2022-10-03T04:23:19;53.78;;;23.85;;
30458;SDS011;17254;50.976;7.034;2022-10-03T04:24:04;60.63;;;26.52;;
30458;SDS011;17254;50.976;7.034;2022-10-03T04:26:10;67.90;;;30.65;;
30458;SDS011;17254;50.976;7.034;2022-10-03T04:26:58;75.85;;;30.65;;
30458;SDS011;17254;50.976;7.034;2022-10-03T04:28:02;65.13;;;29.40;;
30458;SDS011;17254;50.976;7.034;2022-10-03T04:28:49;55.70;;;26.25;;
30458;SDS011;17254;50.976;7.034;2022-10-03T04:29:45;66.75;;;27.20;;
30458;SDS011;17254;50.976;7.034;2022-10-03T04:30:21;74.40;;;28.25;;
30458;SDS011;17254;50.976;7.034;2022-10-03T04:31:03;63.00;;;28.35;;
30458;SDS011;17254;50.976;7.034;2022-10-03T04:31:46;58.53;;;27.13;;
30458;SDS011;17254;50.976;7.034;2022-10-03T04:32:38;62.47;;;28.98;;
30458;SDS011;17254;50.976;7.034;2022-10-03T04:33:22;77.32;;;27.63;;
30458;SDS011;17254;50.976;7.034;2022-10-03T04:34:07;74.05;;;31.40;;
30458;SDS011;17254;50.976;7.034;2022-10-03T04:34:49;71.97;;;28.92;;
30458;SDS011;17254;50.976;7.034;2022-10-03T04:38:05;68.18;;;25.77;;
30458;SDS011;17254;50.976;7.034;2022-10-03T04:38:45;55.70;;;24.35;;
30458;SDS011;17254;50.976;7.034;2022-10-03T04:39:28;68.05;;;28.63;;
30458;SDS011;17254;50.976;7.034;2022-10-03T04:40:52;68.88;;;26.75;;
30458;SDS011;17254;50.976;7.034;2022-10-03T04:41:35;55.10;;;26.02;;
30458;SDS011;17254;50.976;7.034;2022-10-03T04:42:12;60.17;;;27.33;;
30458;SDS011;17254;50.976;7.034;2022-10-03T04:42:58;61.10;;;26.75;;
30458;SDS011;17254;50.976;7.034;2022-10-03T04:43:39;63.30;;;26.13;;
30458;SDS011;17254;50.976;7.034;2022-10-03T04:44:18;52.00;;;23.45;;
30458;SDS011;17254;50.976;7.034;2022-10-03T04:45:04;80.47;;;30.67;;
30458;SDS011;17254;50.976;7.034;2022-10-03T04:45:53;78.15;;;31.55;;
30458;SDS011;17254;50.976;7.034;2022-10-03T04:46:35;61.88;;;26.13;;
30458;SDS011;17254;50.976;7.034;2022-10-03T04:47:15;65.03;;;28.05;;
30458;SDS011;17254;50.976;7.034;2022-10-03T04:47:55;63.58;;;28.48;;
30458;SDS011;17254;50.976;7.034;2022-10-03T04:48:37;58.00;;;23.90;;
30458;SDS011;17254;50.976;7.034;2022-10-03T04:49:17;53.17;;;24.38;;
30458;SDS011;17254;50.976;7.034;2022-10-03T04:50:01;64.95;;;27.85;;
30458;SDS011;17254;50.976;7.034;2022-10-03T04:50:43;81.78;;;28.67;;
30458;SDS011;17254;50.976;7.034;2022-10-03T04:51:33;62.95;;;24.13;;
30458;SDS011;17254;50.976;7.034;2022-10-03T04:52:15;58.10;;;25.42;;
30458;SDS011;17254;50.976;7.034;2022-10-03T04:52:55;60.75;;;24.60;;
30458;SDS011;17254;50.976;7.034;2022-10-03T04:53:38;56.38;;;26.10;;
30458;SDS011;17254;50.976;7.034;2022-10-03T04:54:22;59.42;;;24.75;;
30458;SDS011;17254;50.976;7.034;2022-10-03T04:55:00;56.88;;;24.15;;
30458;SDS011;17254;50.976;7.034;2022-10-03T04:55:38;45.83;;;21.75;;
30458;SDS011;17254;50.976;7.034;2022-10-03T04:56:17;56.00;;;23.70;;
30458;SDS011;17254;50.976;7.034;2022-10-03T04:56:58;57.90;;;22.65;;
30458;SDS011;17254;50.976;7.034;2022-10-03T04:57:35;56.97;;;25.85;;
30458;SDS011;17254;50.976;7.034;2022-10-03T04:58:16;75.75;;;29.50;;
30458;SDS011;17254;50.976;7.034;2022-10-03T04:58:57;58.17;;;26.55;;
30458;SDS011;17254;50.976;7.034;2022-10-03T04:59:39;70.88;;;26.20;;
30458;SDS011;17254;50.976;7.034;2022-10-03T05:00:20;47.33;;;22.35;;
30458;SDS011;17254;50.976;7.034;2022-10-03T05:00:56;48.83;;;22.02;;